Aérodrome :
LOGIN :

S'inscrire | Disclaimer

   EN    FR    IT 

 










Légende :    VFR   VFR Marginal   IFR   IFR Intensif   IFR Très Intensif
Visi : 
Plafond : 
>= 8 km
>= 3000ft
5 à 8 km
1000 à 3000 ft
1500m à 5 km
500 à 1000 ft
800 à 1500m
200 à 500 ft
< 800m
< 200 ft
Symboles :   Orages  Brouillard  Fortes neiges  Fortes précipitations  Vent > 20 kt
SIGMETs :   Divers  Orages  Givrage  Turbulence  Onde Orograph.  Cendres Volcan.






- Altitude de l'aérodrome : 580 ft


LFOA - Avord

DERNIER METAR :
  • 150700Z AUTO 24017KT 9999 FEW012 SCT037 OVC050 11/09 Q1006

METARs EXPIRÉS :
  • 150630Z AUTO 25014KT 4600 -RA BR FEW009 BKN015 BKN020 11/09 Q1006
  • 150600Z AUTO 23011KT 9000 -RA FEW014 BKN021 OVC026 11/08 Q1005
  • 150530Z AUTO 21013KT 9999 -RA FEW015 OVC026 11/08 Q1004
  • 150500Z AUTO 20013KT 9999 -RA BKN031 BKN039 BKN046 11/08 Q1004
  • 150430Z AUTO 20010KT 9999 FEW018 BKN056 OVC066 11/08 Q1004

Prévision TAF périmée.



MET'MAP, la Météo Aéronautique d'un coup d'oeil ! - Copyright ORBIFLY Décembre 2007 - Disclaimer

ORBIFLY MET'MAP TEAM :

Programmation & Développement : Alexandra Zaïnal
Sur une idée originale de : Baudouin d'Aumeries
Assistance à la programmation : Marc-Olivier Méhu
Soutien technique & logistique : Manuel Goepfert

Contact : metmap@orbifly.com




SOURCES & CREDITS :

   NOAA